Time;durP1;ratioP1;P1;durP2;ratioP2;P2;SDS_P1;SDS_P2;PMS_P1;PMS_P2;Temp;Humidity;BMP_temperature;BMP_pressure;BME280_temperature;BME280_humidity;BME280_pressure;Samples;Min_cycle;Max_cycle;Signal;HPM_P1;HPM_P2
2022/09/30 00:00:46;;;;;;;13.75;4.65;;;;;;;14.43;85.50;93629.44;6164970;23;19994;-86
2022/09/30 00:03:11;;;;;;;7.68;4.93;;;;;;;14.39;85.67;93629.38;6165000;23;20310;-86
2022/09/30 00:05:37;;;;;;;13.38;4.78;;;;;;;14.43;85.35;93640.97;6165292;23;19994;-87
2022/09/30 00:08:03;;;;;;;9.45;4.13;;;;;;;14.44;85.29;93639.06;6165605;23;20040;-86
2022/09/30 00:10:28;;;;;;;11.00;4.32;;;;;;;14.43;85.52;93634.81;6165185;23;20299;-86
2022/09/30 00:12:54;;;;;;;7.40;4.35;;;;;;;14.39;85.83;93639.28;6165236;23;20005;-86
2022/09/30 00:15:19;;;;;;;9.40;4.07;;;;;;;14.39;85.92;93644.66;6165543;23;20036;-86
2022/09/30 00:17:45;;;;;;;6.50;4.15;;;;;;;14.36;86.20;93640.00;6165156;23;20004;-86
2022/09/30 00:20:10;;;;;;;6.70;4.43;;;;;;;14.35;86.09;93639.22;6164677;23;20099;-86
2022/09/30 00:22:36;;;;;;;10.40;4.63;;;;;;;14.35;86.25;93654.50;6165235;23;20013;-84
2022/09/30 00:25:02;;;;;;;7.00;4.32;;;;;;;14.37;86.49;93661.09;6165084;23;20033;-85
2022/09/30 00:27:27;;;;;;;9.25;4.70;;;;;;;14.38;86.61;93662.66;6163854;23;20006;-86
2022/09/30 00:29:53;;;;;;;6.82;4.13;;;;;;;14.38;86.36;93659.97;6164925;23;20291;-85
2022/09/30 00:32:18;;;;;;;11.63;4.90;;;;;;;14.41;86.48;93658.50;6165399;23;19998;-86
2022/09/30 00:34:44;;;;;;;10.18;6.57;;;;;;;14.41;86.26;93658.50;6165523;23;20311;-85
2022/09/30 00:37:13;;;;;;;8.93;4.82;;;;;;;14.41;86.49;93655.81;6165475;23;20041;-85
2022/09/30 00:39:39;;;;;;;8.25;4.80;;;;;;;14.43;86.38;93648.22;6165599;23;20016;-84
2022/09/30 00:42:10;;;;;;;9.02;4.45;;;;;;;14.44;86.43;93644.41;6165531;23;20235;-85
2022/09/30 00:44:45;;;;;;;9.93;4.90;;;;;;;14.42;86.47;93639.41;6165311;23;20008;-85
2022/09/30 00:47:35;;;;;;;8.55;5.25;;;;;;;14.41;86.61;93637.03;6165516;23;20004;-85
2022/09/30 00:50:13;;;;;;;8.77;4.43;;;;;;;14.41;86.30;93631.69;6165563;23;20005;-85
2022/09/30 00:52:38;;;;;;;7.32;4.68;;;;;;;14.37;86.47;93625.44;6165311;23;20012;-85
2022/09/30 00:55:08;;;;;;;10.35;5.10;;;;;;;14.38;86.40;93645.78;6163758;23;20017;-85
2022/09/30 00:57:35;;;;;;;13.75;6.30;;;;;;;14.36;86.42;93640.75;6163990;23;20025;-85
2022/09/30 01:00:02;;;;;;;7.53;4.47;;;;;;;14.36;86.41;93645.34;6165185;23;20016;-85
2022/09/30 01:02:27;;;;;;;14.27;5.75;;;;;;;14.37;85.94;93638.84;6165201;23;20060;-88
2022/09/30 01:04:55;;;;;;;10.10;5.55;;;;;;;14.34;86.85;93647.59;6167504;23;20025;-87
2022/09/30 01:07:22;;;;;;;12.02;5.22;;;;;;;14.32;86.67;93647.16;6166443;23;20068;-87
2022/09/30 01:09:48;;;;;;;12.70;5.40;;;;;;;14.34;86.57;93643.00;6167044;23;20002;-88
2022/09/30 01:12:19;;;;;;;8.20;5.47;;;;;;;14.31;86.44;93635.66;6167035;23;20272;-88
2022/09/30 01:14:46;;;;;;;8.85;5.40;;;;;;;14.33;85.92;93635.28;6167068;23;19997;-88
2022/09/30 01:17:31;;;;;;;10.80;5.63;;;;;;;14.34;85.47;93642.22;6166877;23;19994;-88
2022/09/30 01:20:19;;;;;;;6.40;4.68;;;;;;;14.29;85.45;93650.50;6165957;23;20002;-88
2022/09/30 01:23:13;;;;;;;13.75;4.75;;;;;;;14.23;85.52;93640.03;6166985;23;20073;-88
2022/09/30 01:25:51;;;;;;;9.32;4.90;;;;;;;14.21;85.31;93639.59;6166761;23;20069;-89
2022/09/30 01:28:41;;;;;;;10.68;5.07;;;;;;;14.21;85.33;93647.63;6166785;23;20001;-88
2022/09/30 01:31:32;;;;;;;8.60;4.32;;;;;;;14.18;85.07;93642.94;6165911;23;20018;-88
2022/09/30 01:34:06;;;;;;;12.45;4.90;;;;;;;14.14;85.00;93644.75;6166305;23;20007;-88
2022/09/30 01:37:02;;;;;;;10.00;3.97;;;;;;;14.13;84.95;93651.25;6165923;23;20016;-88
2022/09/30 01:40:04;;;;;;;10.57;5.65;;;;;;;14.09;84.99;93657.63;6166206;23;20291;-88
2022/09/30 01:42:46;;;;;;;16.00;6.15;;;;;;;14.02;85.40;93645.59;6166570;23;20012;-89
2022/09/30 01:45:16;;;;;;;11.05;6.20;;;;;;;14.00;85.60;93645.16;6166607;23;20012;-88
2022/09/30 01:47:47;;;;;;;10.15;5.32;;;;;;;13.97;85.02;93642.34;6166248;23;20001;-88
2022/09/30 01:50:26;;;;;;;13.00;6.40;;;;;;;13.91;85.49;93638.34;6166721;23;20044;-88
2022/09/30 01:53:19;;;;;;;14.55;6.28;;;;;;;13.92;85.48;93651.41;6167049;23;20001;-88
2022/09/30 01:55:57;;;;;;;11.50;5.93;;;;;;;13.88;85.68;93645.19;6154338;23;20004;-88
2022/09/30 01:58:25;;;;;;;18.77;5.68;;;;;;;13.90;85.59;93647.50;6166549;23;20005;-87
2022/09/30 02:00:56;;;;;;;9.50;6.05;;;;;;;13.84;85.32;93639.72;6168423;23;20061;-88
2022/09/30 02:03:39;;;;;;;10.38;5.40;;;;;;;13.84;85.30;93646.97;6169506;23;20001;-88
2022/09/30 02:06:13;;;;;;;9.35;5.85;;;;;;;13.83;84.69;93640.81;6167960;23;19994;-86
2022/09/30 02:08:45;;;;;;;9.23;5.57;;;;;;;13.75;84.92;93651.66;6167221;23;20002;-86
2022/09/30 02:11:17;;;;;;;15.43;6.63;;;;;;;13.67;85.17;93648.00;6167044;23;20003;-86
2022/09/30 02:13:55;;;;;;;9.90;7.10;;;;;;;13.67;85.92;93655.25;6166471;23;20275;-87
2022/09/30 02:16:41;;;;;;;11.93;7.25;;;;;;;13.66;86.33;93657.16;6166537;23;20007;-87
2022/09/30 02:19:28;;;;;;;16.25;8.00;;;;;;;13.67;86.73;93653.34;6166558;23;20007;-86
2022/09/30 02:22:09;;;;;;;10.23;7.22;;;;;;;13.59;86.92;93657.69;6166373;23;20005;-86
2022/09/30 02:24:38;;;;;;;18.42;9.48;;;;;;;13.62;86.48;93661.63;6166265;23;20017;-88
2022/09/30 02:27:10;;;;;;;24.10;13.45;;;;;;;13.58;87.70;93658.06;6166294;23;20024;-87
2022/09/30 02:29:42;;;;;;;16.48;8.90;;;;;;;13.60;88.36;93663.84;6166110;23;20005;-85
2022/09/30 02:32:37;;;;;;;16.42;10.52;;;;;;;13.62;87.76;93661.63;6166407;23;20085;-86
2022/09/30 02:35:10;;;;;;;16.25;10.25;;;;;;;13.62;87.85;93672.34;6154914;23;19997;-86
2022/09/30 02:37:41;;;;;;;24.38;11.63;;;;;;;13.57;87.86;93653.81;6166118;23;20300;-86
2022/09/30 02:40:35;;;;;;;21.70;12.38;;;;;;;13.61;87.95;93654.69;5142203;27;20379;-86
2022/09/30 02:43:02;;;;;;;23.27;11.60;;;;;;;13.60;87.99;93650.47;5141830;28;20028;-87
2022/09/30 02:45:37;;;;;;;20.02;10.60;;;;;;;13.60;87.77;93647.78;5141693;27;20038;-86
2022/09/30 02:48:15;;;;;;;23.70;11.40;;;;;;;13.60;87.42;93648.56;5141676;27;20019;-86
2022/09/30 02:50:53;;;;;;;21.02;12.23;;;;;;;13.59;87.32;93647.00;5141833;27;20027;-86
2022/09/30 02:53:25;;;;;;;17.00;10.68;;;;;;;13.59;87.10;93648.91;5143569;28;20015;-86
2022/09/30 02:56:05;;;;;;;;;;;;;;;13.58;86.59;93660.75;5142700;28;20023;-86
2022/09/30 02:58:35;;;;;;;28.10;11.45;;;;;;;13.54;87.17;93665.19;5141860;27;19904;-86
2022/09/30 03:01:01;;;;;;;23.88;12.35;;;;;;;13.54;87.62;93662.53;5141719;28;20031;-86
2022/09/30 03:03:32;;;;;;;23.73;12.00;;;;;;;13.53;87.64;93656.38;5143078;28;20031;-86
2022/09/30 03:05:58;;;;;;;16.80;11.00;;;;;;;13.52;87.65;93667.44;5141366;27;20028;-83
2022/09/30 03:08:24;;;;;;;21.98;12.55;;;;;;;13.50;87.32;93675.78;5142292;27;20023;-82
2022/09/30 03:10:51;;;;;;;21.58;11.55;;;;;;;13.49;87.09;93670.78;5141407;28;20027;-85
2022/09/30 03:13:34;;;;;;;23.30;12.38;;;;;;;13.48;87.02;93674.56;5141264;27;20063;-85
2022/09/30 03:16:30;;;;;;;19.98;12.55;;;;;;;13.44;86.97;93672.56;5143842;28;20023;-86
2022/09/30 03:19:04;;;;;;;19.90;12.45;;;;;;;13.42;86.96;93672.09;5151007;27;20023;-86
2022/09/30 03:21:42;;;;;;;28.85;12.18;;;;;;;13.43;86.95;93679.03;5148512;27;20049;-86
2022/09/30 03:24:24;;;;;;;30.73;11.82;;;;;;;13.41;86.53;93683.94;5148806;28;20023;-86
2022/09/30 03:27:31;;;;;;;20.65;12.40;;;;;;;13.39;87.10;93685.38;5140709;28;20230;-86
2022/09/30 03:30:05;;;;;;;114.35;13.13;;;;;;;13.31;87.78;93684.41;5140881;27;20026;-86
2022/09/30 03:32:45;;;;;;;42.45;12.10;;;;;;;13.34;88.65;93678.34;5140476;27;20023;-86
2022/09/30 03:35:46;;;;;;;217.50;13.80;;;;;;;13.38;89.29;93681.94;5140550;28;20060;-85
2022/09/30 03:38:34;;;;;;;55.60;13.40;;;;;;;13.39;89.63;93686.19;5106580;28;20035;-85
2022/09/30 03:41:19;;;;;;;62.97;12.90;;;;;;;13.42;89.85;93677.47;5127002;28;20031;-86
2022/09/30 03:44:01;;;;;;;66.35;13.43;;;;;;;13.47;89.92;93683.72;5140975;27;20098;-87
2022/09/30 03:46:26;;;;;;;64.88;13.40;;;;;;;13.53;90.08;93679.69;5140943;28;20061;-87
2022/09/30 03:48:56;;;;;;;55.67;14.20;;;;;;;13.60;90.19;93691.41;5146506;27;20015;-87
2022/09/30 03:51:25;;;;;;;45.22;12.68;;;;;;;13.67;90.53;93698.09;5140226;28;20069;-87
2022/09/30 03:53:52;;;;;;;125.00;15.50;;;;;;;13.71;90.62;93702.44;5137020;28;20054;-87
2022/09/30 03:56:27;;;;;;;242.05;15.13;;;;;;;13.66;90.33;93700.00;5138343;28;20030;-86
2022/09/30 03:58:52;;;;;;;185.35;14.80;;;;;;;13.65;90.72;93703.78;5135227;28;20016;-87
2022/09/30 04:01:22;;;;;;;75.78;13.80;;;;;;;13.64;91.03;93699.56;5131271;28;20019;-86
2022/09/30 04:03:51;;;;;;;148.27;13.18;;;;;;;13.67;91.47;93695.44;5132978;28;20034;-86
2022/09/30 04:06:22;;;;;;;206.27;14.55;;;;;;;13.64;91.72;93703.00;5133501;28;20026;-87
2022/09/30 04:08:49;;;;;;;305.08;15.95;;;;;;;13.54;91.69;93703.47;5129925;28;20313;-88
2022/09/30 04:11:15;;;;;;;264.85;14.82;;;;;;;13.56;92.07;93698.56;5131433;28;20107;-88
2022/09/30 04:13:40;;;;;;;267.42;14.98;;;;;;;13.54;92.62;93687.41;5131277;28;20034;-88
2022/09/30 04:16:09;;;;;;;66.57;13.63;;;;;;;13.55;92.86;93701.56;5131454;28;20019;-87
2022/09/30 04:18:37;;;;;;;243.48;17.88;;;;;;;13.56;92.56;93703.13;5127106;28;20030;-87
2022/09/30 04:21:06;;;;;;;134.85;14.20;;;;;;;13.50;92.54;93702.56;5126361;28;20086;-88
2022/09/30 04:23:36;;;;;;;117.03;15.80;;;;;;;13.55;92.69;93704.25;5126643;28;20069;-88
2022/09/30 04:26:04;;;;;;;212.38;16.17;;;;;;;13.55;92.69;93693.53;5127302;28;20314;-88
2022/09/30 04:28:30;;;;;;;49.50;15.23;;;;;;;13.56;92.96;93692.44;5126983;28;20310;-87
2022/09/30 04:30:58;;;;;;;140.48;14.55;;;;;;;13.61;93.05;93703.66;5125664;28;20224;-87
2022/09/30 04:33:24;;;;;;;102.78;13.00;;;;;;;13.65;92.80;93703.78;5125665;28;20020;-88
2022/09/30 04:35:54;;;;;;;133.13;13.68;;;;;;;13.65;92.38;93711.81;5125792;28;20019;-88
2022/09/30 04:38:19;;;;;;;78.35;14.35;;;;;;;13.65;92.04;93715.28;5125651;28;20043;-87
2022/09/30 04:40:45;;;;;;;122.68;13.70;;;;;;;13.60;91.71;93712.06;5125936;28;20019;-86
2022/09/30 04:43:10;;;;;;;43.33;12.38;;;;;;;13.57;92.24;93712.72;5127575;28;20045;-85
2022/09/30 04:45:37;;;;;;;55.55;13.70;;;;;;;13.59;92.12;93707.81;5127625;28;20026;-87
2022/09/30 04:48:03;;;;;;;61.25;12.18;;;;;;;13.61;92.10;93713.59;5127716;28;20028;-87
2022/09/30 04:50:29;;;;;;;67.40;13.48;;;;;;;13.66;91.06;93726.78;5127095;28;20061;-87
2022/09/30 04:52:56;;;;;;;23.67;10.85;;;;;;;13.53;89.92;93727.88;5126341;28;20082;-87
2022/09/30 04:55:22;;;;;;;22.58;12.20;;;;;;;13.49;90.42;93743.84;5125949;28;20072;-88
2022/09/30 04:57:48;;;;;;;27.10;11.93;;;;;;;13.51;90.47;93741.59;5125498;28;20027;-86
2022/09/30 05:00:14;;;;;;;56.38;14.57;;;;;;;13.58;90.27;93752.56;5125801;28;20031;-88
2022/09/30 05:02:42;;;;;;;80.30;12.02;;;;;;;13.55;89.91;93763.16;5124581;28;20340;-88
2022/09/30 05:05:08;;;;;;;58.95;11.50;;;;;;;13.34;90.69;93757.88;5126083;28;20027;-88
2022/09/30 05:07:33;;;;;;;236.60;15.93;;;;;;;13.33;91.32;93743.72;5125627;28;20292;-87
2022/09/30 05:09:59;;;;;;;38.25;12.60;;;;;;;13.34;92.32;93747.94;5125754;28;20046;-86
2022/09/30 05:12:25;;;;;;;58.53;13.10;;;;;;;13.33;92.81;93735.69;5125069;28;20015;-86
2022/09/30 05:14:50;;;;;;;190.15;15.45;;;;;;;13.25;92.57;93741.91;5125488;28;20016;-86
2022/09/30 05:17:16;;;;;;;221.50;14.45;;;;;;;12.99;93.30;93732.25;5124938;28;20065;-86
2022/09/30 05:19:41;;;;;;;93.78;14.18;;;;;;;13.03;94.36;93757.22;5124892;28;20422;-86
2022/09/30 05:22:07;;;;;;;248.90;19.13;;;;;;;13.12;94.76;93772.41;5125174;28;20054;-86
2022/09/30 05:24:32;;;;;;;176.52;15.65;;;;;;;13.07;94.98;93772.59;5124933;28;20328;-85
2022/09/30 05:26:58;;;;;;;217.20;17.63;;;;;;;13.05;94.61;93784.44;5124484;28;20023;-86
2022/09/30 05:29:23;;;;;;;200.63;14.65;;;;;;;13.04;94.79;93772.16;5124865;28;20016;-87
2022/09/30 05:31:49;;;;;;;58.50;14.95;;;;;;;13.12;95.63;93777.75;5106738;28;20279;-87
2022/09/30 05:34:15;;;;;;;111.28;15.77;;;;;;;13.17;96.05;93769.53;5124838;28;20027;-86
2022/09/30 05:36:44;;;;;;;75.07;15.32;;;;;;;13.21;95.62;93765.88;5124245;28;20043;-87
2022/09/30 05:39:10;;;;;;;69.20;14.20;;;;;;;13.31;95.65;93777.28;5124232;28;20051;-86
2022/09/30 05:41:36;;;;;;;31.10;14.02;;;;;;;13.37;95.58;93774.06;5123918;28;20034;-87
2022/09/30 05:44:02;;;;;;;46.95;14.07;;;;;;;13.52;94.42;93779.91;5124422;28;20023;-87
2022/09/30 05:46:28;;;;;;;32.00;12.93;;;;;;;13.55;93.64;93779.97;5105951;28;20213;-87
2022/09/30 05:48:54;;;;;;;23.70;12.30;;;;;;;13.61;93.46;93784.00;5124074;28;20297;-85
2022/09/30 05:51:19;;;;;;;23.40;12.65;;;;;;;13.72;93.37;93788.94;5105762;28;20057;-86
2022/09/30 05:53:45;;;;;;;35.97;16.00;;;;;;;13.82;92.50;93794.63;5124108;28;20023;-88
2022/09/30 05:56:11;;;;;;;22.15;13.52;;;;;;;13.87;92.31;93787.50;5124673;28;20379;-86
2022/09/30 05:59:08;;;;;;;27.30;15.85;;;;;;;13.97;92.30;93795.88;5124657;28;20048;-87
2022/09/30 06:01:35;;;;;;;38.90;18.40;;;;;;;14.08;91.94;93806.13;5116281;28;20046;-85
2022/09/30 06:04:01;;;;;;;74.00;21.02;;;;;;;14.17;91.88;93810.25;5106229;28;20027;-85
2022/09/30 06:06:26;;;;;;;95.60;19.35;;;;;;;14.14;91.88;93816.28;5124165;28;20344;-85
2022/09/30 06:09:43;;;;;;;;;;;;;;;;;;;;;
2022/09/30 06:12:09;;;;;;;37.20;17.95;;;;;;;14.43;91.42;93811.78;5039841;28;20065;-85
2022/09/30 06:14:35;;;;;;;89.28;20.75;;;;;;;14.55;91.26;93819.03;5061425;28;20031;-85
2022/09/30 06:17:00;;;;;;;65.80;23.08;;;;;;;14.69;90.73;93818.69;5124190;28;20214;-88
2022/09/30 06:19:27;;;;;;;70.47;23.58;;;;;;;14.81;89.88;93821.34;5124301;28;20019;-90
2022/09/30 06:21:53;;;;;;;50.95;22.35;;;;;;;14.83;89.10;93819.09;5124340;28;20313;-88
2022/09/30 06:24:19;;;;;;;44.45;22.85;;;;;;;14.85;88.94;93806.91;5124191;28;20022;-86
2022/09/30 06:26:44;;;;;;;38.90;20.73;;;;;;;14.90;88.88;93805.88;5124147;28;20031;-86
2022/09/30 06:29:10;;;;;;;39.65;20.85;;;;;;;14.94;88.55;93809.44;5124063;28;20019;-84
2022/09/30 06:31:37;;;;;;;46.47;22.65;;;;;;;15.00;88.18;93815.34;5123766;28;20023;-85
2022/09/30 06:34:04;;;;;;;39.15;21.10;;;;;;;15.05;88.38;93818.56;5124010;28;20313;-83
2022/09/30 06:36:32;;;;;;;41.75;20.02;;;;;;;15.11;88.69;93811.06;5105622;28;20077;-83
2022/09/30 06:39:02;;;;;;;50.63;20.67;;;;;;;15.11;89.45;93816.44;5123485;28;20091;-86
2022/09/30 06:41:28;;;;;;;41.13;21.48;;;;;;;15.23;88.87;93831.69;5105145;28;20024;-86
2022/09/30 06:43:55;;;;;;;41.85;21.10;;;;;;;15.32;88.08;93829.63;5123327;28;20020;-86
2022/09/30 06:46:22;;;;;;;47.05;21.65;;;;;;;15.38;87.59;93838.22;5105198;28;20053;-86
2022/09/30 06:48:51;;;;;;;42.35;21.98;;;;;;;15.40;88.06;93835.97;5123486;28;20043;-85
2022/09/30 06:51:17;;;;;;;44.40;22.77;;;;;;;15.43;87.03;93857.56;5123360;28;20019;-85
2022/09/30 06:53:43;;;;;;;48.90;22.73;;;;;;;15.45;86.31;93860.69;5123029;28;20069;-85
2022/09/30 06:56:08;;;;;;;51.75;23.95;;;;;;;15.45;86.63;93876.03;5123253;28;20047;-85
2022/09/30 06:58:34;;;;;;;74.00;27.75;;;;;;;15.43;87.03;93878.28;5123277;28;20028;-86
2022/09/30 07:01:04;;;;;;;55.75;28.10;;;;;;;15.38;86.78;93873.91;5123164;28;20038;-82
2022/09/30 07:03:32;;;;;;;50.38;24.88;;;;;;;15.39;87.10;93866.66;5123355;28;20094;-82
2022/09/30 07:05:59;;;;;;;50.47;26.60;;;;;;;15.36;87.11;93878.06;5123246;28;20064;-83
2022/09/30 07:08:30;;;;;;;59.70;27.05;;;;;;;15.27;86.83;93880.91;5105464;28;20019;-82
2022/09/30 07:11:10;;;;;;;48.08;24.38;;;;;;;15.27;86.37;93886.28;5123518;28;20051;-82
2022/09/30 07:13:36;;;;;;;40.40;22.65;;;;;;;15.30;86.63;93882.91;5123649;28;20030;-82
2022/09/30 07:16:01;;;;;;;46.60;22.23;;;;;;;15.45;85.98;93884.09;5123439;28;20051;-82
2022/09/30 07:18:27;;;;;;;52.10;24.95;;;;;;;15.54;85.92;93889.31;5122971;28;20082;-83
2022/09/30 07:20:54;;;;;;;51.53;24.52;;;;;;;15.67;86.04;93879.25;5123265;28;20037;-78
2022/09/30 07:23:21;;;;;;;41.90;22.58;;;;;;;15.80;85.87;93892.31;5123667;28;20317;-82
2022/09/30 07:26:03;;;;;;;44.17;23.45;;;;;;;15.97;85.00;93895.81;5127406;28;20264;-83
2022/09/30 07:28:32;;;;;;;54.92;27.67;;;;;;;16.02;84.78;93909.00;5130561;28;20056;-81
2022/09/30 07:31:06;;;;;;;50.88;24.95;;;;;;;16.05;83.69;93905.59;5127875;28;20024;-78
2022/09/30 07:33:32;;;;;;;43.20;23.75;;;;;;;16.07;84.20;93903.34;5127854;28;20015;-79
2022/09/30 07:35:59;;;;;;;48.55;24.40;;;;;;;16.16;83.88;93914.72;5127270;28;20328;-79
2022/09/30 07:38:29;;;;;;;44.67;24.45;;;;;;;16.19;83.68;93908.66;5126863;28;20031;-78
2022/09/30 07:41:01;;;;;;;41.25;24.48;;;;;;;16.25;83.83;93907.25;5126741;28;20062;-79
2022/09/30 07:43:33;;;;;;;36.78;21.38;;;;;;;16.33;83.61;93899.38;5126570;28;20095;-78
2022/09/30 07:46:04;;;;;;;35.10;19.77;;;;;;;16.41;83.35;93898.41;5126993;28;20031;-79
2022/09/30 07:48:43;;;;;;;34.55;18.42;;;;;;;16.47;82.60;93888.19;5126773;28;20083;-79
2022/09/30 07:51:29;;;;;;;32.50;17.60;;;;;;;16.57;81.83;93891.09;5126843;28;20313;-79
2022/09/30 07:54:04;;;;;;;32.67;17.42;;;;;;;16.65;81.84;93900.13;5126430;28;20178;-82
2022/09/30 07:56:30;;;;;;;31.10;16.52;;;;;;;16.77;81.66;93883.88;5126331;28;20030;-85
2022/09/30 07:58:59;;;;;;;30.15;17.45;;;;;;;16.86;80.86;93891.75;5126293;28;20031;-81
2022/09/30 08:01:26;;;;;;;29.42;18.08;;;;;;;16.86;80.19;93891.00;5126288;28;20248;-80
2022/09/30 08:03:57;;;;;;;40.83;18.27;;;;;;;16.94;80.11;93912.31;5126263;28;20314;-79
2022/09/30 08:06:24;;;;;;;30.75;17.90;;;;;;;17.06;80.21;93922.19;5126146;28;20023;-79
2022/09/30 08:08:52;;;;;;;34.45;19.60;;;;;;;17.18;80.27;93919.38;5125926;28;20087;-78
2022/09/30 08:11:18;;;;;;;43.20;21.15;;;;;;;17.26;80.47;93925.69;5126273;28;20061;-80
2022/09/30 08:13:43;;;;;;;43.25;24.15;;;;;;;17.33;81.51;93925.81;5125704;28;20020;-79
2022/09/30 08:16:09;;;;;;;41.92;21.40;;;;;;;17.41;80.70;93919.44;5125944;28;20023;-80
2022/09/30 08:18:34;;;;;;;38.13;21.13;;;;;;;17.41;79.88;93919.44;5125658;28;20031;-78
2022/09/30 08:21:04;;;;;;;41.03;20.65;;;;;;;17.50;80.07;93923.84;5125666;28;20031;-78
2022/09/30 08:23:30;;;;;;;39.72;21.30;;;;;;;17.52;80.48;93935.03;5125833;28;20051;-78
2022/09/30 08:26:09;;;;;;;26.42;15.80;;;;;;;17.54;78.89;93936.25;5125692;28;20087;-78
2022/09/30 08:28:37;;;;;;;31.98;16.77;;;;;;;17.59;76.93;93929.81;5125305;28;20057;-79
2022/09/30 08:34:34;;;;;;;30.58;15.43;;;;;;;17.72;77.55;93942.00;5048129;28;20038;-83
2022/09/30 08:37:00;;;;;;;29.80;15.10;;;;;;;17.86;78.04;93933.44;5125592;28;20027;-82
2022/09/30 08:39:25;;;;;;;31.92;15.65;;;;;;;17.99;75.96;93947.53;5125118;28;20031;-83
2022/09/30 08:42:12;;;;;;;26.50;15.38;;;;;;;18.00;75.03;93946.41;5125633;27;20027;-80
2022/09/30 08:44:47;;;;;;;31.17;14.40;;;;;;;17.99;75.57;93942.13;5125122;28;20195;-80
2022/09/30 08:47:15;;;;;;;26.90;13.27;;;;;;;18.04;75.17;93936.44;5126000;28;20389;-82
2022/09/30 08:49:59;;;;;;;25.00;13.35;;;;;;;18.11;74.69;93939.25;5125950;28;20057;-84
2022/09/30 08:52:39;;;;;;;28.55;12.15;;;;;;;18.18;74.51;93952.88;5125831;28;20023;-80
2022/09/30 08:55:06;;;;;;;20.77;12.80;;;;;;;18.32;73.69;93954.25;5125258;28;20310;-84
2022/09/30 08:57:42;;;;;;;25.42;12.45;;;;;;;18.45;73.78;93953.72;5125508;28;20029;-83
2022/09/30 09:00:12;;;;;;;17.55;10.55;;;;;;;18.52;72.17;93936.88;5125001;28;20027;-84
2022/09/30 09:03:02;;;;;;;27.45;10.77;;;;;;;18.61;72.82;93945.50;5124944;28;20024;-80
2022/09/30 09:05:52;;;;;;;17.75;10.32;;;;;;;18.70;72.30;93950.63;5125281;28;20321;-82
2022/09/30 09:08:38;;;;;;;17.67;9.43;;;;;;;18.79;71.70;93958.53;5125397;27;20023;-85
2022/09/30 09:11:36;;;;;;;26.83;9.55;;;;;;;18.87;71.75;93962.91;5125189;28;20035;-80
2022/09/30 09:14:33;;;;;;;18.98;9.40;;;;;;;18.90;72.49;93969.50;5125587;28;20023;-81
2022/09/30 09:17:08;;;;;;;18.83;8.80;;;;;;;19.02;72.69;93959.25;5124785;28;20030;-86
2022/09/30 09:19:46;;;;;;;29.00;10.13;;;;;;;19.15;71.75;93954.44;5126146;28;20322;-85
2022/09/30 09:22:11;;;;;;;24.35;8.73;;;;;;;19.30;69.77;93960.03;5124588;28;20022;-77
2022/09/30 09:24:46;;;;;;;14.07;8.10;;;;;;;19.40;69.36;93971.00;5106441;28;20023;-77
2022/09/30 09:27:25;;;;;;;18.02;8.70;;;;;;;19.52;68.76;93977.28;5124584;28;20035;-77
2022/09/30 09:30:06;;;;;;;16.45;8.95;;;;;;;19.61;68.68;93964.28;5124829;28;20206;-76
2022/09/30 09:32:33;;;;;;;19.92;9.48;;;;;;;19.70;68.35;93970.22;5124280;28;20019;-77
2022/09/30 09:35:21;;;;;;;11.27;7.15;;;;;;;19.84;66.42;93983.94;5124230;28;20030;-81
2022/09/30 09:38:24;;;;;;;17.23;7.60;;;;;;;19.91;66.27;93977.81;5106978;28;20316;-78
2022/09/30 09:41:13;;;;;;;14.75;7.68;;;;;;;20.01;66.46;93968.28;5122357;28;20027;-79
2022/09/30 09:43:45;;;;;;;20.83;7.88;;;;;;;20.04;67.16;93970.22;5122050;28;20019;-80
2022/09/30 09:46:38;;;;;;;17.42;7.88;;;;;;;20.18;66.60;93969.59;5121187;28;20314;-80
2022/09/30 09:49:12;;;;;;;15.48;7.70;;;;;;;20.34;66.29;93966.66;5121608;28;20015;-79
2022/09/30 09:51:57;;;;;;;15.18;7.78;;;;;;;20.39;65.87;93963.59;5122024;28;20023;-79
2022/09/30 09:54:29;;;;;;;16.65;6.43;;;;;;;20.50;64.49;93969.91;5123330;28;20321;-79
2022/09/30 09:56:55;;;;;;;17.20;6.32;;;;;;;20.65;64.33;93970.81;5123809;28;20020;-79
2022/09/30 09:59:20;;;;;;;15.93;6.78;;;;;;;20.74;62.98;93957.75;5123947;28;20275;-79
2022/09/30 10:01:52;;;;;;;13.65;6.53;;;;;;;20.75;62.13;93970.13;5123815;28;20043;-79
2022/09/30 10:04:25;;;;;;;19.67;6.45;;;;;;;20.89;61.87;93985.72;5124042;28;20034;-79
2022/09/30 10:07:00;;;;;;;11.90;6.35;;;;;;;20.96;61.94;93974.94;5124778;28;20023;-80
2022/09/30 10:09:35;;;;;;;22.63;6.30;;;;;;;21.04;59.95;93968.44;5124333;28;20039;-79
2022/09/30 10:12:06;;;;;;;15.07;6.10;;;;;;;21.14;57.75;93960.75;5124550;28;20011;-79
2022/09/30 10:14:55;;;;;;;16.35;7.20;;;;;;;21.28;61.07;93963.53;5123801;28;20020;-79
2022/09/30 10:17:28;;;;;;;15.07;6.85;;;;;;;21.40;59.01;93959.75;5124085;28;20038;-79
2022/09/30 10:20:00;;;;;;;14.27;6.05;;;;;;;21.54;57.61;93964.50;5124072;28;20038;-79
2022/09/30 10:22:29;;;;;;;14.90;5.70;;;;;;;21.59;56.84;93956.75;5123877;28;20064;-79
2022/09/30 10:25:13;;;;;;;15.00;5.30;;;;;;;21.71;55.31;93952.16;5105728;28;20019;-79
2022/09/30 10:27:49;;;;;;;12.02;6.05;;;;;;;21.77;54.94;93943.25;5123551;28;20087;-79
2022/09/30 10:30:44;;;;;;;9.32;4.78;;;;;;;21.94;53.14;93930.13;5123937;28;20021;-79
2022/09/30 10:33:35;;;;;;;11.60;7.30;;;;;;;22.01;54.95;93939.06;5123735;28;20027;-80
2022/09/30 10:36:11;;;;;;;15.77;5.90;;;;;;;22.00;54.16;93942.16;5093672;28;20054;-80
2022/09/30 10:38:46;;;;;;;10.55;6.25;;;;;;;22.08;54.04;93951.88;5123316;28;20279;-79
2022/09/30 10:41:12;;;;;;;11.88;6.78;;;;;;;22.20;52.62;93946.09;5123404;28;20043;-80
2022/09/30 10:43:50;;;;;;;12.57;5.70;;;;;;;22.35;49.32;93940.75;5105015;28;20019;-80
2022/09/30 10:46:29;;;;;;;6.93;3.85;;;;;;;22.41;48.25;93942.69;5123283;28;20025;-80
2022/09/30 10:48:56;;;;;;;9.07;4.35;;;;;;;22.55;49.80;93955.50;5123175;28;20305;-80
2022/09/30 10:51:28;;;;;;;10.68;4.45;;;;;;;22.66;48.21;93957.44;5123258;28;20164;-80
2022/09/30 10:53:55;;;;;;;5.57;3.33;;;;;;;22.69;48.83;93943.84;5123271;28;20035;-80
2022/09/30 10:56:36;;;;;;;7.05;2.83;;;;;;;22.80;46.73;93954.72;5123115;28;20023;-79
2022/09/30 10:59:05;;;;;;;13.50;3.13;;;;;;;22.94;47.96;93953.94;5123636;28;20019;-80
2022/09/30 11:01:42;;;;;;;5.82;2.72;;;;;;;23.10;47.27;93959.00;5107857;28;20038;-80
2022/09/30 11:04:25;;;;;;;7.03;3.05;;;;;;;23.25;48.14;93963.25;5127420;28;20195;-80
2022/09/30 11:06:58;;;;;;;5.88;2.70;;;;;;;23.28;43.44;93953.53;5127468;28;20042;-78
2022/09/30 11:09:38;;;;;;;7.10;2.65;;;;;;;23.46;43.34;93961.66;5127153;28;20046;-80
2022/09/30 11:12:24;;;;;;;4.43;2.20;;;;;;;23.51;41.82;93958.53;5127341;28;20031;-79
2022/09/30 11:15:12;;;;;;;7.45;2.75;;;;;;;23.67;42.72;93944.47;5127461;28;20024;-80
2022/09/30 11:18:13;;;;;;;5.32;2.70;;;;;;;23.72;42.14;93944.84;5127122;28;20060;-80
2022/09/30 11:20:42;;;;;;;13.35;2.90;;;;;;;23.76;41.71;93948.34;5105093;28;20265;-81
2022/09/30 11:23:22;;;;;;;10.48;2.75;;;;;;;23.79;40.78;93947.59;5127121;28;20094;-80
2022/09/30 11:26:06;;;;;;;4.95;2.47;;;;;;;23.78;39.77;93956.91;5127088;28;20069;-80
2022/09/30 11:28:40;;;;;;;14.48;2.28;;;;;;;23.73;39.82;93957.31;5126652;28;20031;-81
2022/09/30 11:31:16;;;;;;;4.10;1.65;;;;;;;23.71;38.49;93946.03;5126884;28;20086;-79
2022/09/30 11:33:50;;;;;;;8.13;1.85;;;;;;;23.75;38.43;93957.69;5126749;28;20019;-80
2022/09/30 11:36:44;;;;;;;7.75;2.10;;;;;;;23.88;36.52;93958.03;5126547;28;20027;-81
2022/09/30 11:39:18;;;;;;;4.63;2.30;;;;;;;24.00;38.18;93956.84;5124904;28;20038;-82
2022/09/30 11:41:55;;;;;;;2.92;1.33;;;;;;;24.10;36.57;93955.22;5126410;28;20051;-80
2022/09/30 11:44:30;;;;;;;3.08;1.48;;;;;;;24.20;38.24;93968.00;5107391;28;20080;-80
2022/09/30 11:47:18;;;;;;;5.70;2.03;;;;;;;24.39;35.87;93967.50;5126490;28;20019;-83
2022/09/30 11:49:50;;;;;;;3.95;1.60;;;;;;;24.35;35.95;93960.53;5126729;28;20039;-84
2022/09/30 11:53:02;;;;;;;3.97;1.52;;;;;;;24.44;37.54;93960.84;5126881;28;20023;-85